createdAt,value
2024-01-14T00:00:15.456Z,74.63
2024-01-14T00:02:42.575Z,73.05
2024-01-14T00:05:10.226Z,73.70
2024-01-14T00:07:41.408Z,74.00
2024-01-14T00:10:08.507Z,74.38
2024-01-14T00:12:35.636Z,71.25
2024-01-14T00:15:03.021Z,71.82
2024-01-14T00:17:32.758Z,71.65
2024-01-14T00:20:01.457Z,72.70
2024-01-14T00:22:28.668Z,70.78
2024-01-14T00:24:55.786Z,68.90
2024-01-14T00:27:22.981Z,68.38
2024-01-14T00:29:51.398Z,64.10
2024-01-14T00:32:18.380Z,61.97
2024-01-14T00:34:45.359Z,65.28
2024-01-14T00:37:14.934Z,63.92
2024-01-14T00:39:41.938Z,63.63
2024-01-14T00:42:09.086Z,64.00
2024-01-14T00:44:36.134Z,66.68
2024-01-14T00:47:04.452Z,65.38
2024-01-14T00:49:31.686Z,64.45
2024-01-14T00:51:59.127Z,68.32
2024-01-14T00:54:27.258Z,71.10
2024-01-14T00:56:54.222Z,71.07
2024-01-14T00:59:22.543Z,69.03
2024-01-14T01:01:49.570Z,70.60
2024-01-14T01:04:17.679Z,63.58
2024-01-14T01:06:45.051Z,64.05
2024-01-14T01:09:15.083Z,60.53
2024-01-14T01:11:42.093Z,58.78
2024-01-14T01:14:10.210Z,59.10
2024-01-14T01:16:37.204Z,58.63
2024-01-14T01:19:04.230Z,59.95
2024-01-14T01:21:31.479Z,59.88
2024-01-14T01:23:58.512Z,60.60
2024-01-14T01:26:25.713Z,62.00
2024-01-14T01:28:52.986Z,60.78
2024-01-14T01:31:27.734Z,64.38
2024-01-14T01:34:02.173Z,64.97
2024-01-14T01:36:29.289Z,67.55
2024-01-14T01:38:56.469Z,67.05
2024-01-14T01:41:23.538Z,61.35
2024-01-14T01:43:50.701Z,58.63
2024-01-14T01:46:17.694Z,53.47
2024-01-14T01:48:47.596Z,53.97
2024-01-14T01:51:15.357Z,55.90
2024-01-14T01:53:42.453Z,56.53
2024-01-14T01:56:09.522Z,49.88
2024-01-14T01:58:36.577Z,45.08
2024-01-14T02:01:06.489Z,39.72
2024-01-14T02:03:34.053Z,40.60
2024-01-14T02:06:01.245Z,37.90
2024-01-14T02:08:28.242Z,36.15
2024-01-14T02:10:55.272Z,34.05
2024-01-14T02:13:22.156Z,35.30
2024-01-14T02:15:49.060Z,34.97
2024-01-14T02:18:16.256Z,34.35
2024-01-14T02:20:43.280Z,34.80
2024-01-14T02:23:11.602Z,33.58
2024-01-14T02:25:38.577Z,33.78
2024-01-14T02:28:05.654Z,36.38
2024-01-14T02:30:33.570Z,34.65
2024-01-14T02:33:00.827Z,32.10
2024-01-14T02:35:27.815Z,34.35
2024-01-14T02:37:56.192Z,34.65
2024-01-14T02:40:23.215Z,33.70
2024-01-14T02:42:50.119Z,34.40
2024-01-14T02:45:17.330Z,34.83
2024-01-14T02:47:44.925Z,33.22
2024-01-14T02:50:14.465Z,36.63
2024-01-14T02:52:41.527Z,39.40
2024-01-14T02:55:08.523Z,41.03
2024-01-14T02:57:35.821Z,38.20
2024-01-14T03:00:02.921Z,37.33
2024-01-14T03:02:30.070Z,36.92
2024-01-14T03:04:57.031Z,36.53
2024-01-14T03:07:23.966Z,36.22
2024-01-14T03:09:50.935Z,34.50
2024-01-14T03:12:17.868Z,35.13
2024-01-14T03:14:44.802Z,34.78
2024-01-14T03:17:11.767Z,33.97
2024-01-14T03:19:41.894Z,35.85
2024-01-14T03:22:09.245Z,35.45
2024-01-14T03:24:36.263Z,36.17
2024-01-14T03:27:03.196Z,36.95
2024-01-14T03:29:30.137Z,37.25
2024-01-14T03:31:57.103Z,37.92
2024-01-14T03:34:25.475Z,37.10
2024-01-14T03:36:52.537Z,36.67
2024-01-14T03:39:19.527Z,36.58
2024-01-14T03:41:46.505Z,36.25
2024-01-14T03:44:14.415Z,38.72
2024-01-14T03:46:41.595Z,37.15
2024-01-14T03:49:09.511Z,38.35
2024-01-14T03:51:36.640Z,42.22
2024-01-14T03:54:05.892Z,49.55
2024-01-14T03:56:32.869Z,50.05
2024-01-14T03:58:59.803Z,49.85
2024-01-14T04:01:26.920Z,49.40
2024-01-14T04:03:53.918Z,49.97
2024-01-14T04:06:24.684Z,48.13
2024-01-14T04:08:52.007Z,48.78
2024-01-14T04:11:19.305Z,45.00
2024-01-14T04:13:46.362Z,42.05
2024-01-14T04:16:13.362Z,35.72
2024-01-14T04:18:40.364Z,34.10
2024-01-14T04:21:09.990Z,35.42
2024-01-14T04:23:37.065Z,36.72
2024-01-14T04:26:07.458Z,37.00
2024-01-14T04:28:34.964Z,37.08
2024-01-14T04:31:02.216Z,41.50
2024-01-14T04:33:29.377Z,40.15
2024-01-14T04:35:56.600Z,43.05
2024-01-14T04:38:23.695Z,43.78
2024-01-14T04:40:50.630Z,40.80
2024-01-14T04:43:17.677Z,43.10
2024-01-14T04:45:44.696Z,39.45
2024-01-14T04:48:12.180Z,38.03
2024-01-14T04:50:45.465Z,36.67
2024-01-14T04:53:12.998Z,37.72
2024-01-14T04:55:39.917Z,40.63
2024-01-14T04:58:06.880Z,43.60
2024-01-14T05:00:34.121Z,44.03
2024-01-14T05:03:01.311Z,42.03
2024-01-14T05:05:28.332Z,41.33
2024-01-14T05:07:55.416Z,37.28
2024-01-14T05:10:22.464Z,34.22
2024-01-14T05:12:49.407Z,32.38
2024-01-14T05:15:16.433Z,32.25
2024-01-14T05:17:43.562Z,32.47
2024-01-14T05:20:10.765Z,31.67
2024-01-14T05:22:37.789Z,32.83
2024-01-14T05:25:05.864Z,34.33
2024-01-14T05:27:32.911Z,33.25
2024-01-14T05:30:00.004Z,32.65
2024-01-14T05:32:26.980Z,34.15
2024-01-14T05:34:53.994Z,33.22
2024-01-14T05:37:21.094Z,32.83
2024-01-14T05:39:48.023Z,32.17
2024-01-14T05:42:15.090Z,32.90
2024-01-14T05:44:42.094Z,35.35
2024-01-14T05:47:09.776Z,34.22
2024-01-14T05:49:36.774Z,33.63
2024-01-14T05:52:03.893Z,34.42
2024-01-14T05:54:30.942Z,34.53
2024-01-14T05:56:59.186Z,38.85
2024-01-14T05:59:26.236Z,37.80
2024-01-14T06:01:53.218Z,37.80
2024-01-14T06:04:21.535Z,39.50
2024-01-14T06:06:48.801Z,39.00
2024-01-14T06:09:15.945Z,38.35
2024-01-14T06:11:43.077Z,35.50
2024-01-14T06:14:10.138Z,34.10
2024-01-14T06:16:42.707Z,33.75
2024-01-14T06:19:09.816Z,32.25
2024-01-14T06:21:43.241Z,32.97
2024-01-14T06:24:11.152Z,31.30
2024-01-14T06:26:38.156Z,30.88
2024-01-14T06:29:05.178Z,31.05
2024-01-14T06:31:32.268Z,29.45
2024-01-14T06:33:59.511Z,30.63
2024-01-14T06:36:26.588Z,29.45
2024-01-14T06:38:53.716Z,30.80
2024-01-14T06:41:24.947Z,30.65
2024-01-14T06:43:52.137Z,31.58
2024-01-14T06:46:19.091Z,31.95
2024-01-14T06:48:46.828Z,32.03
2024-01-14T06:51:15.341Z,31.65
2024-01-14T06:53:42.612Z,31.65
2024-01-14T06:56:09.989Z,34.30
2024-01-14T06:58:37.008Z,35.50
2024-01-14T07:01:05.289Z,35.05
2024-01-14T07:03:32.829Z,35.72
2024-01-14T07:06:00.069Z,35.28
2024-01-14T07:08:27.346Z,37.00
2024-01-14T07:10:54.396Z,36.33
2024-01-14T07:13:23.803Z,39.17
2024-01-14T07:15:50.823Z,41.35
2024-01-14T07:18:18.492Z,42.30
2024-01-14T07:20:45.565Z,44.70
2024-01-14T07:23:41.671Z,41.90
2024-01-14T07:26:01.106Z,41.60
2024-01-14T07:28:28.193Z,42.42
2024-01-14T07:30:55.294Z,47.95
2024-01-14T07:33:22.601Z,50.95
2024-01-14T07:35:49.605Z,49.75
2024-01-14T07:38:16.573Z,48.33
2024-01-14T07:40:43.604Z,49.00
2024-01-14T07:43:10.569Z,44.88
2024-01-14T07:45:37.623Z,48.13
2024-01-14T07:48:05.101Z,47.20
2024-01-14T07:50:34.757Z,47.92
2024-01-14T07:53:01.725Z,46.72
2024-01-14T07:55:28.736Z,45.70
2024-01-14T07:57:56.874Z,44.25
2024-01-14T08:00:23.936Z,43.58
2024-01-14T08:02:51.018Z,42.80
2024-01-14T08:05:19.399Z,42.50
2024-01-14T08:07:46.382Z,41.88
2024-01-14T08:10:13.424Z,44.72
2024-01-14T08:12:42.424Z,43.25
2024-01-14T08:15:10.152Z,46.35
2024-01-14T08:17:39.010Z,48.40
2024-01-14T08:20:07.666Z,50.85
2024-01-14T08:22:35.102Z,49.33
2024-01-14T08:25:02.208Z,48.88
2024-01-14T08:27:30.989Z,45.38
2024-01-14T08:29:58.029Z,44.05
2024-01-14T08:32:25.157Z,44.97
2024-01-14T08:34:52.311Z,44.70
2024-01-14T08:37:20.222Z,43.47
2024-01-14T08:39:47.972Z,42.85
2024-01-14T08:42:14.931Z,42.88
2024-01-14T08:44:41.962Z,40.58
2024-01-14T08:47:09.698Z,40.67
2024-01-14T08:49:36.733Z,43.28
2024-01-14T08:52:03.846Z,40.92
2024-01-14T08:54:31.943Z,45.42
2024-01-14T08:56:58.980Z,39.25
2024-01-14T08:59:25.907Z,39.00
2024-01-14T09:01:54.275Z,40.17
2024-01-14T09:04:21.239Z,40.40
2024-01-14T09:06:48.321Z,52.50
2024-01-14T09:09:15.391Z,43.25
2024-01-14T09:11:42.770Z,44.17
2024-01-14T09:14:09.727Z,42.53
2024-01-14T09:16:36.726Z,42.55
2024-01-14T09:19:03.826Z,44.63
2024-01-14T09:21:30.948Z,43.25
2024-01-14T09:23:58.364Z,44.10
2024-01-14T09:26:25.399Z,41.72
2024-01-14T09:28:53.131Z,46.53
2024-01-14T09:31:20.526Z,42.83
2024-01-14T09:33:47.676Z,44.30
2024-01-14T09:36:14.791Z,41.80
2024-01-14T09:38:41.826Z,41.60
2024-01-14T09:41:47.792Z,42.22
2024-01-14T09:44:17.594Z,42.72
2024-01-14T09:46:45.477Z,44.92
2024-01-14T09:49:17.409Z,42.35
2024-01-14T09:51:47.105Z,40.63
2024-01-14T09:54:14.111Z,41.95
2024-01-14T09:56:42.198Z,42.40
2024-01-14T09:59:09.741Z,42.63
2024-01-14T10:01:38.020Z,42.80
2024-01-14T10:04:07.336Z,39.45
2024-01-14T10:06:34.471Z,41.30
2024-01-14T10:09:01.526Z,41.90
2024-01-14T10:11:28.522Z,41.78
2024-01-14T10:13:55.587Z,41.42
2024-01-14T10:16:50.655Z,37.20
2024-01-14T10:19:11.621Z,38.88
2024-01-14T10:21:39.230Z,39.30
2024-01-14T10:24:06.555Z,35.17
2024-01-14T10:26:33.689Z,33.85
2024-01-14T10:29:04.471Z,37.47
2024-01-14T10:31:34.770Z,33.78
2024-01-14T10:34:03.765Z,29.02
2024-01-14T10:36:33.773Z,32.33
2024-01-14T10:39:00.974Z,36.50
2024-01-14T10:41:28.037Z,35.40
2024-01-14T10:43:55.766Z,33.88
2024-01-14T10:46:25.828Z,33.13
2024-01-14T10:49:22.172Z,32.08
2024-01-14T10:51:51.774Z,31.90
2024-01-14T10:54:21.674Z,29.30
2024-01-14T10:56:52.157Z,29.13
2024-01-14T10:59:23.232Z,27.93
2024-01-14T11:01:54.893Z,24.27
2024-01-14T11:04:22.612Z,29.55
2024-01-14T11:06:49.927Z,27.92
2024-01-14T11:09:16.979Z,40.45
2024-01-14T11:11:49.796Z,28.77
2024-01-14T11:14:23.003Z,27.73
2024-01-14T11:16:53.540Z,34.42
2024-01-14T11:19:30.237Z,34.13
2024-01-14T11:22:32.435Z,39.33
2024-01-14T11:25:05.302Z,76.13
2024-01-14T11:27:33.318Z,56.10
2024-01-14T11:30:01.139Z,36.05
2024-01-14T11:32:28.561Z,32.83
2024-01-14T11:34:56.881Z,35.85
2024-01-14T11:37:43.005Z,32.10
2024-01-14T11:40:17.997Z,32.45
2024-01-14T11:42:48.549Z,29.08
2024-01-14T11:45:24.713Z,30.47
2024-01-14T11:47:53.329Z,29.45
2024-01-14T11:50:21.018Z,30.63
2024-01-14T11:52:51.868Z,32.17
2024-01-14T11:55:39.279Z,30.52
2024-01-14T11:58:10.911Z,28.20
2024-01-14T12:00:39.570Z,33.20
2024-01-14T12:03:07.544Z,32.35
2024-01-14T12:05:36.141Z,32.55
2024-01-14T12:08:04.750Z,36.35
2024-01-14T12:10:33.304Z,36.70
2024-01-14T12:13:01.446Z,50.53
2024-01-14T12:15:31.174Z,37.08
2024-01-14T12:18:01.216Z,37.88
2024-01-14T12:20:29.239Z,42.15
2024-01-14T12:22:57.710Z,28.23
2024-01-14T12:25:27.769Z,32.72
2024-01-14T12:27:56.875Z,38.65
2024-01-14T12:30:24.577Z,40.13
2024-01-14T12:32:51.766Z,49.03
2024-01-14T12:35:19.162Z,27.60
2024-01-14T12:37:47.078Z,28.95
2024-01-14T12:40:14.044Z,24.30
2024-01-14T12:42:41.095Z,24.55
2024-01-14T12:45:08.148Z,26.73
2024-01-14T12:47:35.104Z,25.17
2024-01-14T12:50:02.339Z,26.13
2024-01-14T12:52:29.533Z,24.33
2024-01-14T12:54:56.536Z,23.30
2024-01-14T12:57:24.863Z,23.20
2024-01-14T12:59:53.185Z,25.33
2024-01-14T13:02:20.499Z,22.70
2024-01-14T13:04:47.704Z,23.05
2024-01-14T13:07:15.035Z,26.08
2024-01-14T13:09:43.170Z,24.50
2024-01-14T13:12:10.610Z,33.60
2024-01-14T13:14:37.621Z,25.20
2024-01-14T13:17:04.641Z,26.27
2024-01-14T13:19:31.801Z,35.60
2024-01-14T13:21:58.825Z,27.20
2024-01-14T13:24:28.659Z,29.08
2024-01-14T13:26:57.698Z,25.08
2024-01-14T13:29:24.615Z,24.35
2024-01-14T13:31:51.658Z,55.78
2024-01-14T13:34:19.019Z,38.40
2024-01-14T13:36:46.228Z,54.08
2024-01-14T13:39:14.701Z,48.83
2024-01-14T13:41:41.983Z,46.67
2024-01-14T13:44:16.685Z,38.53
2024-01-14T13:46:45.854Z,37.00
2024-01-14T13:49:13.202Z,31.15
2024-01-14T13:51:40.780Z,35.90
2024-01-14T13:54:13.097Z,30.58
2024-01-14T13:56:42.520Z,28.02
2024-01-14T13:59:10.678Z,21.88
2024-01-14T14:01:41.122Z,20.08
2024-01-14T14:04:08.872Z,21.63
2024-01-14T14:06:38.686Z,23.60
2024-01-14T14:09:10.744Z,22.25
2024-01-14T14:14:05.052Z,27.73
2024-01-14T14:16:39.449Z,37.28
2024-01-14T14:19:10.050Z,31.23
2024-01-14T14:21:50.724Z,26.20
2024-01-14T14:24:24.673Z,24.05
2024-01-14T14:26:51.818Z,24.38
2024-01-14T14:29:21.326Z,22.90
2024-01-14T14:34:21.396Z,23.90
2024-01-14T14:36:49.936Z,27.73
2024-01-14T14:39:17.853Z,25.10
2024-01-14T14:41:45.004Z,30.52
2024-01-14T14:44:12.216Z,26.92
2024-01-14T14:46:40.754Z,35.30
2024-01-14T14:49:08.122Z,37.83
2024-01-14T14:51:39.584Z,40.47
2024-01-14T14:54:09.297Z,34.67
2024-01-14T14:56:36.982Z,34.78
2024-01-14T14:59:03.971Z,31.25
2024-01-14T15:01:38.122Z,33.75
2024-01-14T15:04:11.652Z,89.80
2024-01-14T15:06:40.281Z,64.38
2024-01-14T15:09:09.575Z,55.03
2024-01-14T15:11:39.551Z,47.75
2024-01-14T15:14:08.023Z,52.35
2024-01-14T15:16:35.312Z,42.67
2024-01-14T15:19:03.122Z,31.10
2024-01-14T15:21:30.490Z,34.75
2024-01-14T15:23:57.700Z,33.65
2024-01-14T15:26:24.848Z,30.50
2024-01-14T15:28:51.968Z,35.00
2024-01-14T15:31:21.456Z,32.78
2024-01-14T15:33:49.623Z,34.88
2024-01-14T15:36:17.850Z,32.35
2024-01-14T15:38:45.826Z,34.15
2024-01-14T15:41:12.853Z,35.53
2024-01-14T15:43:40.711Z,31.10
2024-01-14T15:46:07.739Z,30.92
2024-01-14T15:48:40.393Z,30.27
2024-01-14T15:51:10.433Z,36.33
2024-01-14T15:53:40.523Z,35.15
2024-01-14T15:56:07.984Z,45.35
2024-01-14T15:58:39.551Z,33.13
2024-01-14T16:01:10.940Z,62.00
2024-01-14T16:03:40.748Z,52.20
2024-01-14T16:06:08.724Z,42.75
2024-01-14T16:08:36.058Z,43.42
2024-01-14T16:11:06.438Z,49.85
2024-01-14T16:13:35.596Z,53.45
2024-01-14T16:16:04.412Z,52.08
2024-01-14T16:18:31.609Z,69.15
2024-01-14T16:21:03.988Z,96.85
2024-01-14T16:23:34.478Z,69.20
2024-01-14T16:26:03.283Z,74.30
2024-01-14T16:28:30.802Z,77.35
2024-01-14T16:31:08.517Z,88.38
2024-01-14T16:33:40.368Z,88.18
2024-01-14T16:36:08.080Z,85.72
2024-01-14T16:38:35.356Z,98.50
2024-01-14T16:41:05.521Z,139.45
2024-01-14T16:43:36.884Z,140.82
2024-01-14T16:46:04.742Z,143.07
2024-01-14T16:48:32.648Z,145.45
2024-01-14T16:51:07.452Z,154.00
2024-01-14T16:53:38.026Z,150.68
2024-01-14T16:56:06.945Z,144.85
2024-01-14T16:58:33.854Z,146.02
2024-01-14T17:03:32.370Z,163.23
2024-01-14T17:05:59.361Z,153.82
2024-01-14T17:08:26.470Z,164.10
2024-01-14T17:11:00.881Z,165.07
2024-01-14T17:13:31.189Z,167.18
2024-01-14T17:16:08.305Z,168.55
2024-01-14T17:18:38.282Z,164.98
2024-01-14T17:21:06.948Z,158.20
2024-01-14T17:23:35.168Z,158.73
2024-01-14T17:26:07.687Z,161.82
2024-01-14T17:28:40.608Z,159.10
2024-01-14T17:31:09.187Z,171.10
2024-01-14T17:33:36.758Z,175.00
2024-01-14T17:36:06.176Z,164.95
2024-01-14T17:38:34.333Z,165.30
2024-01-14T17:41:01.694Z,160.88
2024-01-14T17:43:29.754Z,154.77
2024-01-14T17:46:06.246Z,151.50
2024-01-14T17:48:36.221Z,168.80
2024-01-14T17:51:04.003Z,149.35
2024-01-14T17:53:31.669Z,158.52
2024-01-14T17:55:58.731Z,149.20
2024-01-14T17:58:25.810Z,143.20
2024-01-14T18:00:53.144Z,162.52
2024-01-14T18:03:21.162Z,140.52
2024-01-14T18:05:49.901Z,137.60
2024-01-14T18:08:16.914Z,135.55
2024-01-14T18:10:48.991Z,131.15
2024-01-14T18:13:16.389Z,153.00
2024-01-14T18:15:44.701Z,136.20
2024-01-14T18:18:12.900Z,135.27
2024-01-14T18:20:40.210Z,115.22
2024-01-14T18:23:12.755Z,118.35
2024-01-14T18:25:42.302Z,132.13
2024-01-14T18:28:11.919Z,136.55
2024-01-14T18:30:39.362Z,142.32
2024-01-14T18:33:11.597Z,155.18
2024-01-14T18:35:45.457Z,149.18
2024-01-14T18:38:16.098Z,161.38
2024-01-14T18:40:43.749Z,169.20
2024-01-14T18:43:11.585Z,162.90
2024-01-14T18:45:39.346Z,162.50
2024-01-14T18:48:07.313Z,178.88
2024-01-14T18:50:35.666Z,176.77
2024-01-14T18:53:04.102Z,183.93
2024-01-14T18:55:31.339Z,164.80
2024-01-14T18:57:58.528Z,179.45
2024-01-14T19:00:26.654Z,190.93
2024-01-14T19:02:53.629Z,171.32
2024-01-14T19:05:20.935Z,152.15
2024-01-14T19:07:48.217Z,148.90
2024-01-14T19:10:15.311Z,149.85
2024-01-14T19:12:42.437Z,168.52
2024-01-14T19:15:09.705Z,161.85
2024-01-14T19:17:36.855Z,161.18
2024-01-14T19:20:05.835Z,151.77
2024-01-14T19:22:33.026Z,156.38
2024-01-14T19:25:01.245Z,152.18
2024-01-14T19:27:28.299Z,165.75
2024-01-14T19:29:55.523Z,153.30
2024-01-14T19:32:22.623Z,142.85
2024-01-14T19:34:49.604Z,141.70
2024-01-14T19:37:17.604Z,131.52
2024-01-14T19:39:48.301Z,137.15
2024-01-14T19:42:15.295Z,141.45
2024-01-14T19:44:42.306Z,142.88
2024-01-14T19:47:09.306Z,140.25
2024-01-14T19:49:36.407Z,142.05
2024-01-14T19:52:03.737Z,148.23
2024-01-14T19:54:31.785Z,140.00
2024-01-14T19:56:59.709Z,135.43
2024-01-14T19:59:26.733Z,127.57
2024-01-14T20:01:54.148Z,129.65
2024-01-14T20:04:22.154Z,124.88
2024-01-14T20:06:51.129Z,120.90
2024-01-14T20:09:25.346Z,127.38
2024-01-14T20:11:58.427Z,122.25
2024-01-14T20:14:25.656Z,129.55
2024-01-14T20:16:54.908Z,116.20
2024-01-14T20:19:22.379Z,119.45
2024-01-14T20:21:52.500Z,128.02
2024-01-14T20:24:19.726Z,122.82
2024-01-14T20:26:46.800Z,118.93
2024-01-14T20:29:13.739Z,127.28
2024-01-14T20:31:40.755Z,128.48
2024-01-14T20:34:08.096Z,130.38
2024-01-14T20:36:35.200Z,137.00
2024-01-14T20:39:02.575Z,139.85
2024-01-14T20:41:29.921Z,139.00
2024-01-14T20:43:56.944Z,144.98
2024-01-14T20:46:24.063Z,154.45
2024-01-14T20:48:51.216Z,135.98
2024-01-14T20:51:18.540Z,135.30
2024-01-14T20:53:45.988Z,135.18
2024-01-14T20:56:13.005Z,142.77
2024-01-14T20:58:41.009Z,151.07
2024-01-14T21:01:08.176Z,202.52
2024-01-14T21:03:35.561Z,202.95
2024-01-14T21:06:02.814Z,192.13
2024-01-14T21:08:29.878Z,187.10
2024-01-14T21:10:56.916Z,167.48
2024-01-14T21:13:24.089Z,164.15
2024-01-14T21:15:52.014Z,160.80
2024-01-14T21:18:21.990Z,159.43
2024-01-14T21:20:49.041Z,158.55
2024-01-14T21:23:18.194Z,150.50
2024-01-14T21:25:45.554Z,150.52
2024-01-14T21:28:12.832Z,150.00
2024-01-14T21:30:40.108Z,151.95
2024-01-14T21:33:07.372Z,175.90
2024-01-14T21:35:34.576Z,165.27
2024-01-14T21:38:01.628Z,177.60
2024-01-14T21:40:28.646Z,166.57
2024-01-14T21:42:55.660Z,160.98
2024-01-14T21:45:22.668Z,148.10
2024-01-14T21:47:49.855Z,132.23
2024-01-14T21:50:16.928Z,136.50
2024-01-14T21:52:43.951Z,141.43
2024-01-14T21:55:13.065Z,132.07
2024-01-14T21:57:41.775Z,131.90
2024-01-14T22:00:10.515Z,117.43
2024-01-14T22:02:38.048Z,114.15
2024-01-14T22:05:06.452Z,114.90
2024-01-14T22:07:33.832Z,121.47
2024-01-14T22:10:01.227Z,125.80
2024-01-14T22:12:28.406Z,119.97
2024-01-14T22:14:56.250Z,116.72
2024-01-14T22:17:23.416Z,119.88
2024-01-14T22:19:51.014Z,113.55
2024-01-14T22:22:18.174Z,115.70
2024-01-14T22:24:45.556Z,106.97
2024-01-14T22:27:12.906Z,103.30
2024-01-14T22:29:39.972Z,96.57
2024-01-14T22:32:07.346Z,93.30
2024-01-14T22:34:34.842Z,93.10
2024-01-14T22:37:02.066Z,87.78
2024-01-14T22:39:30.391Z,88.07
2024-01-14T22:41:57.621Z,89.53
2024-01-14T22:44:24.949Z,87.38
2024-01-14T22:46:52.019Z,81.97
2024-01-14T22:49:19.472Z,84.18
2024-01-14T22:51:47.193Z,88.85
2024-01-14T22:54:14.808Z,81.63
2024-01-14T22:56:42.228Z,83.78
2024-01-14T22:59:11.722Z,85.45
2024-01-14T23:01:39.059Z,87.45
2024-01-14T23:04:06.361Z,87.22
2024-01-14T23:06:33.942Z,84.40
2024-01-14T23:09:01.178Z,85.93
2024-01-14T23:11:28.161Z,86.88
2024-01-14T23:13:55.115Z,89.95
2024-01-14T23:16:22.534Z,87.72
2024-01-14T23:18:49.686Z,86.47
2024-01-14T23:21:16.982Z,86.35
2024-01-14T23:23:44.021Z,84.32
2024-01-14T23:26:11.010Z,85.70
2024-01-14T23:28:37.952Z,83.03
2024-01-14T23:31:05.277Z,75.97
2024-01-14T23:33:32.595Z,70.03
2024-01-14T23:36:01.565Z,71.13
2024-01-14T23:38:29.026Z,66.25
2024-01-14T23:40:55.947Z,65.10
2024-01-14T23:43:23.624Z,62.47
2024-01-14T23:45:50.786Z,60.28
2024-01-14T23:48:17.954Z,59.92
2024-01-14T23:50:44.994Z,60.10
2024-01-14T23:53:12.003Z,57.80
2024-01-14T23:55:38.965Z,66.53
2024-01-14T23:58:08.883Z,63.53
